createdAt,value
2024-03-04T00:01:47.311Z,19.47
2024-03-04T00:04:13.832Z,19.48
2024-03-04T00:06:40.244Z,19.47
2024-03-04T00:09:09.681Z,19.47
2024-03-04T00:11:36.861Z,19.45
2024-03-04T00:14:04.049Z,19.44
2024-03-04T00:16:31.116Z,19.44
2024-03-04T00:19:00.594Z,19.44
2024-03-04T00:21:28.424Z,19.44
2024-03-04T00:23:55.174Z,19.43
2024-03-04T00:26:22.369Z,19.43
2024-03-04T00:28:49.422Z,19.42
2024-03-04T00:31:15.965Z,19.42
2024-03-04T00:33:42.464Z,19.43
2024-03-04T00:36:09.012Z,19.42
2024-03-04T00:38:35.841Z,19.43
2024-03-04T00:41:02.264Z,19.42
2024-03-04T00:43:29.314Z,19.42
2024-03-04T00:45:55.910Z,19.42
2024-03-04T00:48:22.300Z,19.40
2024-03-04T00:50:48.872Z,19.40
2024-03-04T00:53:15.318Z,19.38
2024-03-04T00:55:41.782Z,19.40
2024-03-04T00:58:08.909Z,19.40
2024-03-04T01:00:35.450Z,19.40
2024-03-04T01:03:01.875Z,19.41
2024-03-04T01:05:28.305Z,19.42
2024-03-04T01:07:54.765Z,19.41
2024-03-04T01:10:21.452Z,19.42
2024-03-04T01:12:48.366Z,19.40
2024-03-04T01:15:14.898Z,19.41
2024-03-04T01:17:41.352Z,19.41
2024-03-04T01:20:11.812Z,19.45
2024-03-04T01:22:38.348Z,19.47
2024-03-04T01:25:05.175Z,19.46
2024-03-04T01:27:33.805Z,19.45
2024-03-04T01:30:00.361Z,19.45
2024-03-04T01:32:26.897Z,19.44
2024-03-04T01:34:53.325Z,19.44
2024-03-04T01:37:20.139Z,19.43
2024-03-04T01:39:46.509Z,19.43
2024-03-04T01:42:12.977Z,19.44
2024-03-04T01:44:39.493Z,19.47
2024-03-04T01:47:08.707Z,19.48
2024-03-04T01:49:36.572Z,19.46
2024-03-04T01:52:04.116Z,19.45
2024-03-04T01:54:30.938Z,19.45
2024-03-04T01:56:57.450Z,19.45
2024-03-04T01:59:24.885Z,19.46
2024-03-04T02:01:51.910Z,19.46
2024-03-04T02:04:19.315Z,19.44
2024-03-04T02:06:46.731Z,19.45
2024-03-04T02:09:14.211Z,19.47
2024-03-04T02:11:40.777Z,19.48
2024-03-04T02:14:07.667Z,19.48
2024-03-04T02:16:34.389Z,19.50
2024-03-04T02:19:02.030Z,19.47
2024-03-04T02:21:31.864Z,19.47
2024-03-04T02:23:58.855Z,19.48
2024-03-04T02:26:25.318Z,19.48
2024-03-04T02:28:51.778Z,19.48
2024-03-04T02:31:18.250Z,19.47
2024-03-04T02:33:46.465Z,19.47
2024-03-04T02:36:13.308Z,19.45
2024-03-04T02:38:39.816Z,19.46
2024-03-04T02:41:06.236Z,19.45
2024-03-04T02:43:32.760Z,19.44
2024-03-04T02:45:59.998Z,19.45
2024-03-04T02:48:26.424Z,19.44
2024-03-04T02:50:53.016Z,19.44
2024-03-04T02:53:19.446Z,19.44
2024-03-04T02:55:47.384Z,19.45
2024-03-04T02:58:13.973Z,19.45
2024-03-04T03:00:40.521Z,19.45
2024-03-04T03:03:07.161Z,19.47
2024-03-04T03:05:33.589Z,19.52
2024-03-04T03:08:00.149Z,19.60
2024-03-04T03:10:27.998Z,19.65
2024-03-04T03:12:54.632Z,19.66
2024-03-04T03:15:21.142Z,19.68
2024-03-04T03:17:48.415Z,19.67
2024-03-04T03:20:18.425Z,19.65
2024-03-04T03:22:48.108Z,19.59
2024-03-04T03:25:14.832Z,19.56
2024-03-04T03:27:41.363Z,19.55
2024-03-04T03:30:08.360Z,19.54
2024-03-04T03:32:36.863Z,19.54
2024-03-04T03:35:03.458Z,19.53
2024-03-04T03:37:29.886Z,19.53
2024-03-04T03:39:56.377Z,19.54
2024-03-04T03:42:22.810Z,19.53
2024-03-04T03:44:49.260Z,19.54
2024-03-04T03:47:17.256Z,19.54
2024-03-04T03:49:43.724Z,19.53
2024-03-04T03:52:10.660Z,19.53
2024-03-04T03:54:37.062Z,19.53
2024-03-04T03:57:03.529Z,19.53
2024-03-04T03:59:29.946Z,19.53
2024-03-04T04:01:57.812Z,19.52
2024-03-04T04:04:26.427Z,19.52
2024-03-04T04:06:53.269Z,19.51
2024-03-04T04:09:19.699Z,19.51
2024-03-04T04:11:46.125Z,19.51
2024-03-04T04:14:12.685Z,19.50
2024-03-04T04:16:39.530Z,19.50
2024-03-04T04:19:06.259Z,19.50
2024-03-04T04:21:33.095Z,19.50
2024-03-04T04:23:59.611Z,19.50
2024-03-04T04:26:26.813Z,19.50
2024-03-04T04:28:53.478Z,19.55
2024-03-04T04:31:23.622Z,19.63
2024-03-04T04:33:50.519Z,19.69
2024-03-04T04:36:21.301Z,19.71
2024-03-04T04:38:47.738Z,19.72
2024-03-04T04:41:14.266Z,19.73
2024-03-04T04:43:40.736Z,19.70
2024-03-04T04:46:07.892Z,19.69
2024-03-04T04:48:35.450Z,19.68
2024-03-04T04:51:02.447Z,19.67
2024-03-04T04:53:28.843Z,19.63
2024-03-04T04:55:55.315Z,19.61
2024-03-04T04:58:22.284Z,19.59
2024-03-04T05:00:48.826Z,19.57
2024-03-04T05:03:30.224Z,19.56
2024-03-04T05:06:02.726Z,19.55
2024-03-04T05:08:29.163Z,19.53
2024-03-04T05:10:55.717Z,19.55
2024-03-04T05:13:22.174Z,19.56
2024-03-04T05:15:48.598Z,19.55
2024-03-04T05:18:16.852Z,19.55
2024-03-04T05:20:54.010Z,19.55
2024-03-04T05:23:22.671Z,19.54
2024-03-04T05:25:49.758Z,19.54
2024-03-04T05:28:16.408Z,19.55
2024-03-04T05:30:42.975Z,19.54
2024-03-04T05:33:12.245Z,19.55
2024-03-04T05:35:39.980Z,19.55
2024-03-04T05:38:06.790Z,19.55
2024-03-04T05:40:33.563Z,19.54
2024-03-04T05:43:00.219Z,19.57
2024-03-04T05:45:26.766Z,19.63
2024-03-04T05:47:53.372Z,19.63
2024-03-04T05:50:19.805Z,19.59
2024-03-04T05:52:47.246Z,19.57
2024-03-04T05:55:14.224Z,19.56
2024-03-04T05:57:42.168Z,19.56
2024-03-04T06:00:16.095Z,19.56
2024-03-04T06:02:45.723Z,19.56
2024-03-04T06:05:12.623Z,19.55
2024-03-04T06:07:39.428Z,19.54
2024-03-04T06:10:06.297Z,19.55
2024-03-04T06:12:32.885Z,19.54
2024-03-04T06:14:59.367Z,19.55
2024-03-04T06:17:26.203Z,19.54
2024-03-04T06:19:52.709Z,19.55
2024-03-04T06:22:19.498Z,19.54
2024-03-04T06:24:45.979Z,19.53
2024-03-04T06:27:12.461Z,19.54
2024-03-04T06:29:38.927Z,19.54
2024-03-04T06:32:05.884Z,19.54
2024-03-04T06:34:32.787Z,19.53
2024-03-04T06:36:59.319Z,19.53
2024-03-04T06:39:25.723Z,19.53
2024-03-04T06:41:53.265Z,19.54
2024-03-04T06:44:19.707Z,19.55
2024-03-04T06:46:46.322Z,19.54
2024-03-04T06:49:12.858Z,19.55
2024-03-04T06:51:39.493Z,19.56
2024-03-04T06:54:06.568Z,19.55
2024-03-04T06:56:33.220Z,19.57
2024-03-04T06:59:00.194Z,19.63
2024-03-04T07:01:27.363Z,19.64
2024-03-04T07:03:54.386Z,19.59
2024-03-04T07:06:20.781Z,19.58
2024-03-04T07:08:47.391Z,19.58
2024-03-04T07:11:14.269Z,19.57
2024-03-04T07:13:41.844Z,19.57
2024-03-04T07:16:08.782Z,19.56
2024-03-04T07:18:35.542Z,19.56
2024-03-04T07:21:03.672Z,19.56
2024-03-04T07:23:30.312Z,19.57
2024-03-04T07:25:56.694Z,19.59
2024-03-04T07:28:23.262Z,19.59
2024-03-04T07:30:51.229Z,19.60
2024-03-04T07:33:17.661Z,19.62
2024-03-04T07:35:44.201Z,19.61
2024-03-04T07:38:11.573Z,19.64
2024-03-04T07:40:37.993Z,19.68
2024-03-04T07:43:04.648Z,19.75
2024-03-04T07:45:31.110Z,19.74
2024-03-04T07:47:57.876Z,19.71
2024-03-04T07:50:24.404Z,19.70
2024-03-04T07:52:50.922Z,19.71
2024-03-04T07:55:18.043Z,19.71
2024-03-04T07:57:45.295Z,19.74
2024-03-04T08:00:12.295Z,19.74
2024-03-04T08:02:41.565Z,19.76
2024-03-04T08:05:07.945Z,19.74
2024-03-04T08:07:34.401Z,19.77
2024-03-04T08:10:01.043Z,19.76
2024-03-04T08:12:27.456Z,19.77
2024-03-04T08:14:53.858Z,19.78
2024-03-04T08:17:21.206Z,19.79
2024-03-04T08:19:53.199Z,19.82
2024-03-04T08:22:19.714Z,19.79
2024-03-04T08:24:46.248Z,19.77
2024-03-04T08:27:12.700Z,19.78
2024-03-04T08:29:39.135Z,19.79
2024-03-04T08:32:06.622Z,19.79
2024-03-04T08:34:34.062Z,19.71
2024-03-04T08:37:01.059Z,19.65
2024-03-04T08:39:27.723Z,19.68
2024-03-04T08:41:54.129Z,19.68
2024-03-04T08:44:20.599Z,19.63
2024-03-04T08:46:47.365Z,19.57
2024-03-04T08:49:17.174Z,19.55
2024-03-04T08:51:43.642Z,19.45
2024-03-04T08:54:10.224Z,19.40
2024-03-04T08:56:36.841Z,19.37
2024-03-04T08:59:03.332Z,19.35
2024-03-04T09:01:33.228Z,19.29
2024-03-04T09:03:59.984Z,19.28
2024-03-04T09:06:27.178Z,19.30
2024-03-04T09:08:53.635Z,19.34
2024-03-04T09:11:20.195Z,19.34
2024-03-04T09:13:46.850Z,19.39
2024-03-04T09:16:13.806Z,19.42
2024-03-04T09:18:40.813Z,19.45
2024-03-04T09:21:07.957Z,19.47
2024-03-04T09:23:34.737Z,19.47
2024-03-04T09:26:01.309Z,19.50
2024-03-04T09:28:28.019Z,19.52
2024-03-04T09:30:54.496Z,19.52
2024-03-04T09:33:20.887Z,19.52
2024-03-04T09:35:47.505Z,19.53
2024-03-04T09:38:13.936Z,19.55
2024-03-04T09:40:43.280Z,19.52
2024-03-04T09:43:11.088Z,19.52
2024-03-04T09:45:37.996Z,19.53
2024-03-04T09:48:05.175Z,19.53
2024-03-04T09:50:31.875Z,19.56
2024-03-04T09:52:59.461Z,19.56
2024-03-04T09:55:26.101Z,19.57
2024-03-04T09:57:54.616Z,19.58
2024-03-04T10:00:22.176Z,19.61
2024-03-04T10:02:49.135Z,19.61
2024-03-04T10:05:15.834Z,19.61
2024-03-04T10:07:42.328Z,19.62
2024-03-04T10:10:13.354Z,19.59
2024-03-04T10:12:40.060Z,19.62
2024-03-04T10:15:07.496Z,19.63
2024-03-04T10:17:34.559Z,19.65
2024-03-04T10:20:07.633Z,19.66
2024-03-04T10:22:36.879Z,19.67
2024-03-04T10:25:05.198Z,19.69
2024-03-04T10:27:36.300Z,19.70
2024-03-04T10:30:09.565Z,19.72
2024-03-04T10:32:37.455Z,19.74
2024-03-04T10:35:07.364Z,19.76
2024-03-04T10:37:34.010Z,19.81
2024-03-04T10:40:00.597Z,19.80
2024-03-04T10:42:27.129Z,19.83
2024-03-04T10:44:53.720Z,19.84
2024-03-04T10:47:26.767Z,19.85
2024-03-04T10:49:53.157Z,19.88
2024-03-04T10:52:19.615Z,19.88
2024-03-04T10:54:49.414Z,19.88
2024-03-04T10:57:35.444Z,19.88
2024-03-04T11:00:18.481Z,19.88
2024-03-04T11:02:54.675Z,19.90
2024-03-04T11:05:23.010Z,19.91
2024-03-04T11:07:50.529Z,19.90
2024-03-04T11:10:17.224Z,19.93
2024-03-04T11:12:45.074Z,19.93
2024-03-04T11:15:14.283Z,19.95
2024-03-04T11:17:51.505Z,19.96
2024-03-04T11:20:20.036Z,19.97
2024-03-04T11:22:47.224Z,19.97
2024-03-04T11:25:15.310Z,19.97
2024-03-04T11:27:42.561Z,19.98
2024-03-04T11:30:09.281Z,19.97
2024-03-04T11:32:35.724Z,20.00
2024-03-04T11:35:12.787Z,20.00
2024-03-04T11:37:51.103Z,20.02
2024-03-04T11:40:19.325Z,20.01
2024-03-04T11:42:47.266Z,20.02
2024-03-04T11:45:15.455Z,20.01
2024-03-04T11:47:42.734Z,20.02
2024-03-04T11:50:29.199Z,20.03
2024-03-04T11:52:57.469Z,20.03
2024-03-04T11:55:24.107Z,20.03
2024-03-04T11:57:50.740Z,20.04
2024-03-04T12:00:17.424Z,20.04
2024-03-04T12:02:44.022Z,20.06
2024-03-04T12:05:10.949Z,20.04
2024-03-04T12:07:37.487Z,20.05
2024-03-04T12:10:13.035Z,20.04
2024-03-04T12:12:44.749Z,20.06
2024-03-04T12:15:11.604Z,20.05
2024-03-04T12:17:38.892Z,20.06
2024-03-04T12:20:08.492Z,20.05
2024-03-04T12:22:36.129Z,20.07
2024-03-04T12:25:03.613Z,20.05
2024-03-04T12:27:30.629Z,20.04
2024-03-04T12:30:13.442Z,20.04
2024-03-04T12:32:41.540Z,20.05
2024-03-04T12:35:27.396Z,20.04
2024-03-04T12:37:54.866Z,20.04
2024-03-04T12:40:21.980Z,20.05
2024-03-04T12:42:55.402Z,20.04
2024-03-04T12:45:23.597Z,20.05
2024-03-04T12:47:52.725Z,20.06
2024-03-04T12:50:19.678Z,20.07
2024-03-04T12:52:46.140Z,20.06
2024-03-04T12:55:15.892Z,20.05
2024-03-04T12:57:43.274Z,20.04
2024-03-04T13:00:15.774Z,20.06
2024-03-04T13:02:42.828Z,20.05
2024-03-04T13:05:09.902Z,20.07
2024-03-04T13:07:36.888Z,20.07
2024-03-04T13:10:09.335Z,20.09
2024-03-04T13:12:36.956Z,20.09
2024-03-04T13:15:09.781Z,20.08
2024-03-04T13:17:36.894Z,20.06
2024-03-04T13:20:10.069Z,20.06
2024-03-04T13:22:40.331Z,20.06
2024-03-04T13:25:10.144Z,20.07
2024-03-04T13:27:37.378Z,20.08
2024-03-04T13:30:04.544Z,20.08
2024-03-04T13:32:34.147Z,20.07
2024-03-04T13:35:00.789Z,20.08
2024-03-04T13:37:27.491Z,20.08
2024-03-04T13:39:54.921Z,20.08
2024-03-04T13:42:22.267Z,20.07
2024-03-04T13:44:49.176Z,20.06
2024-03-04T13:47:16.189Z,20.02
2024-03-04T13:49:42.771Z,20.04
2024-03-04T13:52:09.720Z,20.04
2024-03-04T13:54:36.149Z,20.03
2024-03-04T13:57:02.671Z,20.04
2024-03-04T13:59:31.778Z,20.02
2024-03-04T14:01:59.744Z,20.02
2024-03-04T14:04:26.237Z,20.02
2024-03-04T14:06:55.978Z,20.02
2024-03-04T14:09:22.756Z,20.01
2024-03-04T14:11:49.954Z,20.00
2024-03-04T14:14:16.861Z,19.98
2024-03-04T14:16:45.105Z,19.98
2024-03-04T14:19:11.606Z,19.99
2024-03-04T14:21:38.133Z,19.99
2024-03-04T14:24:04.669Z,19.99
2024-03-04T14:26:32.765Z,19.99
2024-03-04T14:29:02.206Z,19.97
2024-03-04T14:31:30.473Z,19.96
2024-03-04T14:33:57.030Z,19.93
2024-03-04T14:36:23.753Z,19.93
2024-03-04T14:38:52.756Z,19.92
2024-03-04T14:41:19.904Z,19.93
2024-03-04T14:43:46.863Z,19.93
2024-03-04T14:46:13.435Z,19.93
2024-03-04T14:48:40.345Z,19.92
2024-03-04T14:51:06.803Z,19.90
2024-03-04T14:53:34.713Z,19.90
2024-03-04T14:56:01.566Z,19.90
2024-03-04T14:58:28.045Z,19.89
2024-03-04T15:00:55.107Z,19.89
2024-03-04T15:03:21.828Z,19.89
2024-03-04T15:05:48.718Z,19.89
2024-03-04T15:08:15.221Z,19.90
2024-03-04T15:10:41.740Z,19.89
2024-03-04T15:13:08.424Z,19.86
2024-03-04T15:15:34.840Z,19.87
2024-03-04T15:18:10.613Z,19.86
2024-03-04T15:20:44.818Z,19.84
2024-03-04T15:23:11.234Z,19.80
2024-03-04T15:25:37.872Z,19.80
2024-03-04T15:28:04.476Z,19.78
2024-03-04T15:30:31.646Z,19.79
2024-03-04T15:32:58.199Z,19.79
2024-03-04T15:35:26.661Z,19.77
2024-03-04T15:37:53.057Z,19.79
2024-03-04T15:40:19.495Z,19.78
2024-03-04T15:42:45.864Z,19.78
2024-03-04T15:45:12.429Z,19.77
2024-03-04T15:47:38.903Z,19.76
2024-03-04T15:50:05.598Z,19.78
2024-03-04T15:52:31.983Z,19.78
2024-03-04T15:54:58.462Z,19.78
2024-03-04T15:57:24.858Z,19.78
2024-03-04T15:59:51.281Z,19.78
2024-03-04T16:02:17.744Z,19.76
2024-03-04T16:04:47.326Z,19.76
2024-03-04T16:07:13.790Z,19.73
2024-03-04T16:09:40.798Z,19.72
2024-03-04T16:12:07.355Z,19.72
2024-03-04T16:14:33.709Z,19.72
2024-03-04T16:17:00.278Z,19.72
2024-03-04T16:19:26.856Z,19.72
2024-03-04T16:21:53.849Z,19.73
2024-03-04T16:24:20.262Z,19.74
2024-03-04T16:26:52.096Z,19.73
2024-03-04T16:29:19.835Z,19.72
2024-03-04T16:31:46.535Z,19.71
2024-03-04T16:34:13.487Z,19.72
2024-03-04T16:36:39.906Z,19.71
2024-03-04T16:39:11.233Z,19.72
2024-03-04T16:41:37.637Z,19.72
2024-03-04T16:46:30.786Z,19.69
2024-03-04T16:48:59.913Z,19.70
2024-03-04T16:51:27.484Z,19.70
2024-03-04T16:53:53.861Z,19.71
2024-03-04T16:56:21.311Z,19.72
2024-03-04T16:58:47.862Z,19.72
2024-03-04T17:01:14.591Z,19.73
2024-03-04T17:03:41.990Z,19.73
2024-03-04T17:06:11.568Z,19.74
2024-03-04T17:08:38.117Z,19.75
2024-03-04T17:11:05.915Z,19.75
2024-03-04T17:13:32.486Z,19.74
2024-03-04T17:15:59.129Z,19.73
2024-03-04T17:18:25.589Z,19.72
2024-03-04T17:20:52.072Z,19.70
2024-03-04T17:23:18.465Z,19.70
2024-03-04T17:25:44.893Z,19.70
2024-03-04T17:28:17.504Z,19.69
2024-03-04T17:30:45.578Z,19.67
2024-03-04T17:33:12.586Z,19.68
2024-03-04T17:35:39.129Z,19.64
2024-03-04T17:38:06.211Z,19.63
2024-03-04T17:40:34.280Z,19.63
2024-03-04T17:43:00.938Z,19.62
2024-03-04T17:45:27.895Z,19.61
2024-03-04T17:47:54.753Z,19.60
2024-03-04T17:50:21.204Z,19.59
2024-03-04T17:52:48.264Z,19.59
2024-03-04T17:55:14.841Z,19.59
2024-03-04T17:57:41.268Z,19.59
2024-03-04T18:00:08.130Z,19.58
2024-03-04T18:02:34.481Z,19.57
2024-03-04T18:05:01.518Z,19.56
2024-03-04T18:07:27.974Z,19.56
2024-03-04T18:09:54.371Z,19.56
2024-03-04T18:12:20.768Z,19.54
2024-03-04T18:14:47.204Z,19.54
2024-03-04T18:17:14.388Z,19.54
2024-03-04T18:19:40.830Z,19.53
2024-03-04T18:22:07.731Z,19.52
2024-03-04T18:24:34.136Z,19.52
2024-03-04T18:27:00.557Z,19.52
2024-03-04T18:29:26.989Z,19.51
2024-03-04T18:31:53.599Z,19.52
2024-03-04T18:34:21.537Z,19.51
2024-03-04T18:36:47.957Z,19.50
2024-03-04T18:39:14.499Z,19.51
2024-03-04T18:41:40.915Z,19.50
2024-03-04T18:44:08.611Z,19.50
2024-03-04T18:46:35.043Z,19.48
2024-03-04T18:49:01.464Z,19.48
2024-03-04T18:51:29.183Z,19.47
2024-03-04T18:53:56.012Z,19.46
2024-03-04T18:56:22.569Z,19.46
2024-03-04T18:58:49.355Z,19.47
2024-03-04T19:01:23.309Z,19.48
2024-03-04T19:03:49.783Z,19.46
2024-03-04T19:06:16.229Z,19.46
2024-03-04T19:08:42.653Z,19.44
2024-03-04T19:11:15.408Z,19.44
2024-03-04T19:13:43.170Z,19.44
2024-03-04T19:16:09.681Z,19.42
2024-03-04T19:18:38.171Z,19.43
2024-03-04T19:21:04.996Z,19.43
2024-03-04T19:23:32.227Z,19.42
2024-03-04T19:25:58.713Z,19.41
2024-03-04T19:28:25.417Z,19.44
2024-03-04T19:30:51.860Z,19.41
2024-03-04T19:33:18.212Z,19.40
2024-03-04T19:35:46.211Z,19.40
2024-03-04T19:38:12.594Z,19.41
2024-03-04T19:40:39.004Z,19.42
2024-03-04T19:43:05.542Z,19.40
2024-03-04T19:45:32.244Z,19.40
2024-03-04T19:47:58.750Z,19.40
2024-03-04T19:50:25.174Z,19.39
2024-03-04T19:52:51.674Z,19.40
2024-03-04T19:55:18.218Z,19.40
2024-03-04T19:57:44.628Z,19.38
2024-03-04T20:00:11.491Z,19.39
2024-03-04T20:02:38.133Z,19.39
2024-03-04T20:05:06.008Z,19.38
2024-03-04T20:07:32.638Z,19.38
2024-03-04T20:09:59.238Z,19.37
2024-03-04T20:12:26.754Z,19.36
2024-03-04T20:14:53.650Z,19.37
2024-03-04T20:17:20.090Z,19.37
2024-03-04T20:19:46.626Z,19.35
2024-03-04T20:22:13.345Z,19.36
2024-03-04T20:24:39.784Z,19.34
2024-03-04T20:27:06.171Z,19.32
2024-03-04T20:29:32.943Z,19.35
2024-03-04T20:31:59.450Z,19.34
2024-03-04T20:34:26.142Z,19.32
2024-03-04T20:36:52.773Z,19.33
2024-03-04T20:39:19.162Z,19.32
2024-03-04T20:41:45.543Z,19.34
2024-03-04T20:44:11.970Z,19.33
2024-03-04T20:46:38.372Z,19.31
2024-03-04T20:49:04.760Z,19.31
2024-03-04T20:51:32.073Z,19.30
2024-03-04T20:54:01.364Z,19.29
2024-03-04T20:56:27.906Z,19.29
2024-03-04T20:58:54.593Z,19.28
2024-03-04T21:01:21.146Z,19.28
2024-03-04T21:03:47.652Z,19.29
2024-03-04T21:06:14.058Z,19.29
2024-03-04T21:08:40.643Z,19.28
2024-03-04T21:11:07.353Z,19.28
2024-03-04T21:13:34.156Z,19.25
2024-03-04T21:16:00.604Z,19.27
2024-03-04T21:18:27.222Z,19.25
2024-03-04T21:20:53.679Z,19.25
2024-03-04T21:23:20.507Z,19.25
2024-03-04T21:25:47.776Z,19.25
2024-03-04T21:28:14.337Z,19.24
2024-03-04T21:30:40.932Z,19.24
2024-03-04T21:33:07.478Z,19.24
2024-03-04T21:35:33.940Z,19.23
2024-03-04T21:38:00.796Z,19.21
2024-03-04T21:40:28.317Z,19.22
2024-03-04T21:42:55.809Z,19.23
2024-03-04T21:45:22.305Z,19.24
2024-03-04T21:47:49.879Z,19.22
2024-03-04T21:50:17.812Z,19.21
2024-03-04T21:52:44.436Z,19.21
2024-03-04T21:55:14.193Z,19.22
2024-03-04T21:57:41.164Z,19.22
2024-03-04T22:00:15.516Z,19.20
2024-03-04T22:02:43.418Z,19.21
2024-03-04T22:05:11.645Z,19.21
2024-03-04T22:07:39.136Z,19.25
2024-03-04T22:10:05.692Z,19.24
2024-03-04T22:12:32.153Z,19.23
2024-03-04T22:14:58.533Z,19.25
2024-03-04T22:17:24.927Z,19.25
2024-03-04T22:19:54.412Z,19.22
2024-03-04T22:22:21.166Z,19.20
2024-03-04T22:24:48.168Z,19.20
2024-03-04T22:27:14.998Z,19.21
2024-03-04T22:29:41.450Z,19.21
2024-03-04T22:32:07.818Z,19.19
2024-03-04T22:34:34.439Z,19.19
2024-03-04T22:37:01.090Z,19.16
2024-03-04T22:39:27.551Z,19.13
2024-03-04T22:41:53.930Z,19.09
2024-03-04T22:44:20.496Z,19.09
2024-03-04T22:46:46.924Z,19.08
2024-03-04T22:49:14.221Z,19.06
2024-03-04T22:51:40.665Z,19.08
2024-03-04T22:54:07.866Z,19.07
2024-03-04T22:56:34.435Z,19.06
2024-03-04T22:59:01.287Z,19.06
2024-03-04T23:01:28.443Z,19.05
2024-03-04T23:03:55.358Z,19.04
2024-03-04T23:06:23.818Z,19.05
2024-03-04T23:08:50.704Z,19.02
2024-03-04T23:11:17.180Z,19.02
2024-03-04T23:13:46.707Z,19.01
2024-03-04T23:16:13.604Z,19.01
2024-03-04T23:18:40.208Z,18.98
2024-03-04T23:21:12.683Z,18.98
2024-03-04T23:23:39.336Z,18.98
2024-03-04T23:26:06.412Z,18.98
2024-03-04T23:28:33.215Z,19.01
2024-03-04T23:30:59.953Z,19.02
2024-03-04T23:33:26.913Z,19.04
2024-03-04T23:35:53.882Z,19.05
2024-03-04T23:38:23.582Z,19.05
2024-03-04T23:40:51.711Z,19.03
2024-03-04T23:43:18.133Z,19.04
2024-03-04T23:45:44.588Z,19.04
2024-03-04T23:48:11.961Z,19.02
2024-03-04T23:50:38.986Z,19.01
2024-03-04T23:53:05.503Z,18.98
2024-03-04T23:55:32.545Z,18.99
2024-03-04T23:57:59.037Z,18.96
